sensor_id;sensor_type;location;lat;lon;timestamp;P1;durP1;ratioP1;P2;durP2;ratioP2
82806;SDS011;72563;44.816;20.484;2024-01-06T00:01:00;11.82;;;5.30;;
82806;SDS011;72563;44.816;20.484;2024-01-06T00:03:26;9.90;;;4.50;;
82806;SDS011;72563;44.816;20.484;2024-01-06T00:05:51;10.52;;;4.85;;
82806;SDS011;72563;44.816;20.484;2024-01-06T00:08:17;11.50;;;5.45;;
82806;SDS011;72563;44.816;20.484;2024-01-06T00:10:42;9.73;;;4.43;;
82806;SDS011;72563;44.816;20.484;2024-01-06T00:13:08;11.75;;;4.45;;
82806;SDS011;72563;44.816;20.484;2024-01-06T00:15:33;11.38;;;4.72;;
82806;SDS011;72563;44.816;20.484;2024-01-06T00:17:59;10.57;;;4.40;;
82806;SDS011;72563;44.816;20.484;2024-01-06T00:20:24;9.82;;;5.20;;
82806;SDS011;72563;44.816;20.484;2024-01-06T00:22:50;9.23;;;4.25;;
82806;SDS011;72563;44.816;20.484;2024-01-06T00:25:15;11.88;;;4.78;;
82806;SDS011;72563;44.816;20.484;2024-01-06T00:27:41;9.65;;;4.25;;
82806;SDS011;72563;44.816;20.484;2024-01-06T00:30:07;9.07;;;4.18;;
82806;SDS011;72563;44.816;20.484;2024-01-06T00:32:33;12.65;;;4.95;;
82806;SDS011;72563;44.816;20.484;2024-01-06T00:34:58;10.88;;;4.53;;
82806;SDS011;72563;44.816;20.484;2024-01-06T00:37:24;11.65;;;4.05;;
82806;SDS011;72563;44.816;20.484;2024-01-06T00:39:49;8.45;;;3.85;;
82806;SDS011;72563;44.816;20.484;2024-01-06T00:42:15;11.88;;;3.80;;
82806;SDS011;72563;44.816;20.484;2024-01-06T00:44:40;8.40;;;3.88;;
82806;SDS011;72563;44.816;20.484;2024-01-06T00:47:06;8.88;;;4.32;;
82806;SDS011;72563;44.816;20.484;2024-01-06T00:49:32;10.80;;;3.92;;
82806;SDS011;72563;44.816;20.484;2024-01-06T00:51:57;8.55;;;3.42;;
82806;SDS011;72563;44.816;20.484;2024-01-06T00:54:22;9.00;;;3.50;;
82806;SDS011;72563;44.816;20.484;2024-01-06T00:56:48;8.40;;;3.42;;
82806;SDS011;72563;44.816;20.484;2024-01-06T00:59:14;7.78;;;2.67;;
82806;SDS011;72563;44.816;20.484;2024-01-06T01:01:39;9.68;;;3.20;;
82806;SDS011;72563;44.816;20.484;2024-01-06T01:04:05;6.82;;;3.33;;
82806;SDS011;72563;44.816;20.484;2024-01-06T01:06:30;8.20;;;3.10;;
82806;SDS011;72563;44.816;20.484;2024-01-06T01:08:56;7.35;;;3.03;;
82806;SDS011;72563;44.816;20.484;2024-01-06T01:11:21;9.15;;;3.17;;
82806;SDS011;72563;44.816;20.484;2024-01-06T01:13:47;11.43;;;3.13;;
82806;SDS011;72563;44.816;20.484;2024-01-06T01:16:12;7.93;;;2.80;;
82806;SDS011;72563;44.816;20.484;2024-01-06T01:18:38;7.30;;;3.17;;
82806;SDS011;72563;44.816;20.484;2024-01-06T01:21:03;8.45;;;2.72;;
82806;SDS011;72563;44.816;20.484;2024-01-06T01:23:29;8.60;;;3.10;;
82806;SDS011;72563;44.816;20.484;2024-01-06T01:25:54;6.05;;;2.22;;
82806;SDS011;72563;44.816;20.484;2024-01-06T01:28:20;8.35;;;3.10;;
82806;SDS011;72563;44.816;20.484;2024-01-06T01:30:46;8.50;;;3.42;;
82806;SDS011;72563;44.816;20.484;2024-01-06T01:33:11;9.00;;;2.55;;
82806;SDS011;72563;44.816;20.484;2024-01-06T01:35:37;6.15;;;2.70;;
82806;SDS011;72563;44.816;20.484;2024-01-06T01:38:02;7.13;;;2.75;;
82806;SDS011;72563;44.816;20.484;2024-01-06T01:40:28;12.15;;;2.90;;
82806;SDS011;72563;44.816;20.484;2024-01-06T01:42:53;6.70;;;2.70;;
82806;SDS011;72563;44.816;20.484;2024-01-06T01:45:19;7.57;;;2.40;;
82806;SDS011;72563;44.816;20.484;2024-01-06T01:47:45;7.10;;;2.25;;
82806;SDS011;72563;44.816;20.484;2024-01-06T01:50:11;6.70;;;2.70;;
82806;SDS011;72563;44.816;20.484;2024-01-06T01:52:38;6.32;;;2.30;;
82806;SDS011;72563;44.816;20.484;2024-01-06T01:55:05;6.90;;;2.50;;
82806;SDS011;72563;44.816;20.484;2024-01-06T01:57:31;8.23;;;2.67;;
82806;SDS011;72563;44.816;20.484;2024-01-06T01:59:57;6.05;;;2.30;;
82806;SDS011;72563;44.816;20.484;2024-01-06T02:02:23;5.68;;;2.15;;
82806;SDS011;72563;44.816;20.484;2024-01-06T02:04:48;6.95;;;2.47;;
82806;SDS011;72563;44.816;20.484;2024-01-06T02:07:14;6.43;;;2.22;;
82806;SDS011;72563;44.816;20.484;2024-01-06T02:09:40;6.15;;;2.10;;
82806;SDS011;72563;44.816;20.484;2024-01-06T02:12:06;5.38;;;2.00;;
82806;SDS011;72563;44.816;20.484;2024-01-06T02:14:32;7.15;;;2.03;;
82806;SDS011;72563;44.816;20.484;2024-01-06T02:16:57;6.63;;;2.50;;
82806;SDS011;72563;44.816;20.484;2024-01-06T02:19:23;6.40;;;2.13;;
82806;SDS011;72563;44.816;20.484;2024-01-06T02:21:53;4.97;;;2.15;;
82806;SDS011;72563;44.816;20.484;2024-01-06T02:24:19;5.82;;;2.20;;
82806;SDS011;72563;44.816;20.484;2024-01-06T02:26:45;6.78;;;2.47;;
82806;SDS011;72563;44.816;20.484;2024-01-06T02:29:10;6.68;;;2.50;;
82806;SDS011;72563;44.816;20.484;2024-01-06T02:31:36;7.43;;;2.17;;
82806;SDS011;72563;44.816;20.484;2024-01-06T02:34:01;6.78;;;2.20;;
82806;SDS011;72563;44.816;20.484;2024-01-06T02:36:27;5.65;;;2.15;;
82806;SDS011;72563;44.816;20.484;2024-01-06T02:38:53;6.70;;;2.15;;
82806;SDS011;72563;44.816;20.484;2024-01-06T02:41:18;5.22;;;2.10;;
82806;SDS011;72563;44.816;20.484;2024-01-06T02:43:44;6.78;;;2.25;;
82806;SDS011;72563;44.816;20.484;2024-01-06T02:46:09;6.35;;;1.98;;
82806;SDS011;72563;44.816;20.484;2024-01-06T02:48:35;7.05;;;2.28;;
82806;SDS011;72563;44.816;20.484;2024-01-06T02:51:00;6.43;;;2.20;;
82806;SDS011;72563;44.816;20.484;2024-01-06T02:53:26;6.63;;;1.92;;
82806;SDS011;72563;44.816;20.484;2024-01-06T02:55:51;5.60;;;2.10;;
82806;SDS011;72563;44.816;20.484;2024-01-06T02:58:16;6.10;;;2.05;;
82806;SDS011;72563;44.816;20.484;2024-01-06T03:00:42;5.90;;;2.05;;
82806;SDS011;72563;44.816;20.484;2024-01-06T03:03:07;5.90;;;2.00;;
82806;SDS011;72563;44.816;20.484;2024-01-06T03:05:33;5.85;;;1.90;;
82806;SDS011;72563;44.816;20.484;2024-01-06T03:07:59;6.43;;;2.10;;
82806;SDS011;72563;44.816;20.484;2024-01-06T03:10:24;5.10;;;2.20;;
82806;SDS011;72563;44.816;20.484;2024-01-06T03:12:50;5.93;;;1.83;;
82806;SDS011;72563;44.816;20.484;2024-01-06T03:15:16;5.30;;;2.20;;
82806;SDS011;72563;44.816;20.484;2024-01-06T03:17:42;5.32;;;1.85;;
82806;SDS011;72563;44.816;20.484;2024-01-06T03:20:07;6.22;;;2.40;;
82806;SDS011;72563;44.816;20.484;2024-01-06T03:22:34;7.10;;;2.30;;
82806;SDS011;72563;44.816;20.484;2024-01-06T03:24:59;6.35;;;2.15;;
82806;SDS011;72563;44.816;20.484;2024-01-06T03:27:25;7.68;;;3.00;;
82806;SDS011;72563;44.816;20.484;2024-01-06T03:29:50;7.15;;;2.55;;
82806;SDS011;72563;44.816;20.484;2024-01-06T03:32:16;8.00;;;2.80;;
82806;SDS011;72563;44.816;20.484;2024-01-06T03:34:41;9.93;;;2.60;;
82806;SDS011;72563;44.816;20.484;2024-01-06T03:37:08;7.10;;;2.55;;
82806;SDS011;72563;44.816;20.484;2024-01-06T03:39:33;6.43;;;2.65;;
82806;SDS011;72563;44.816;20.484;2024-01-06T03:41:59;5.50;;;2.45;;
82806;SDS011;72563;44.816;20.484;2024-01-06T03:44:25;5.78;;;2.10;;
82806;SDS011;72563;44.816;20.484;2024-01-06T03:46:56;6.57;;;2.30;;
82806;SDS011;72563;44.816;20.484;2024-01-06T03:49:23;6.13;;;1.98;;
82806;SDS011;72563;44.816;20.484;2024-01-06T03:51:49;5.85;;;2.63;;
82806;SDS011;72563;44.816;20.484;2024-01-06T03:54:14;5.63;;;2.58;;
82806;SDS011;72563;44.816;20.484;2024-01-06T03:56:40;5.38;;;1.90;;
82806;SDS011;72563;44.816;20.484;2024-01-06T03:59:05;9.10;;;2.90;;
82806;SDS011;72563;44.816;20.484;2024-01-06T04:01:31;8.60;;;2.50;;
82806;SDS011;72563;44.816;20.484;2024-01-06T04:04:00;5.78;;;2.25;;
82806;SDS011;72563;44.816;20.484;2024-01-06T04:06:25;5.10;;;2.22;;
82806;SDS011;72563;44.816;20.484;2024-01-06T04:08:52;6.47;;;2.22;;
82806;SDS011;72563;44.816;20.484;2024-01-06T04:11:20;5.50;;;1.77;;
82806;SDS011;72563;44.816;20.484;2024-01-06T04:13:46;5.65;;;2.30;;
82806;SDS011;72563;44.816;20.484;2024-01-06T04:16:11;6.70;;;2.67;;
82806;SDS011;72563;44.816;20.484;2024-01-06T04:18:37;6.35;;;2.10;;
82806;SDS011;72563;44.816;20.484;2024-01-06T04:21:03;6.28;;;2.45;;
82806;SDS011;72563;44.816;20.484;2024-01-06T04:23:30;5.13;;;2.15;;
82806;SDS011;72563;44.816;20.484;2024-01-06T04:25:56;6.50;;;2.33;;
82806;SDS011;72563;44.816;20.484;2024-01-06T04:28:21;6.38;;;2.10;;
82806;SDS011;72563;44.816;20.484;2024-01-06T04:30:47;6.22;;;2.10;;
82806;SDS011;72563;44.816;20.484;2024-01-06T04:33:12;7.85;;;2.45;;
82806;SDS011;72563;44.816;20.484;2024-01-06T04:35:38;5.55;;;2.42;;
82806;SDS011;72563;44.816;20.484;2024-01-06T04:38:03;7.07;;;2.50;;
82806;SDS011;72563;44.816;20.484;2024-01-06T04:40:29;6.78;;;2.33;;
82806;SDS011;72563;44.816;20.484;2024-01-06T04:42:55;7.30;;;2.45;;
82806;SDS011;72563;44.816;20.484;2024-01-06T04:45:20;8.35;;;2.53;;
82806;SDS011;72563;44.816;20.484;2024-01-06T04:47:48;8.98;;;2.50;;
82806;SDS011;72563;44.816;20.484;2024-01-06T04:50:14;6.70;;;2.75;;
82806;SDS011;72563;44.816;20.484;2024-01-06T04:52:39;5.97;;;2.30;;
82806;SDS011;72563;44.816;20.484;2024-01-06T04:55:05;6.85;;;2.53;;
82806;SDS011;72563;44.816;20.484;2024-01-06T04:57:31;6.22;;;2.40;;
82806;SDS011;72563;44.816;20.484;2024-01-06T04:59:56;5.75;;;2.35;;
82806;SDS011;72563;44.816;20.484;2024-01-06T05:02:22;6.10;;;2.17;;
82806;SDS011;72563;44.816;20.484;2024-01-06T05:04:47;5.97;;;2.25;;
82806;SDS011;72563;44.816;20.484;2024-01-06T05:07:13;5.43;;;2.00;;
82806;SDS011;72563;44.816;20.484;2024-01-06T05:09:38;5.35;;;2.33;;
82806;SDS011;72563;44.816;20.484;2024-01-06T05:12:04;6.32;;;2.33;;
82806;SDS011;72563;44.816;20.484;2024-01-06T05:14:29;6.40;;;2.22;;
82806;SDS011;72563;44.816;20.484;2024-01-06T05:16:55;6.13;;;2.35;;
82806;SDS011;72563;44.816;20.484;2024-01-06T05:19:21;6.18;;;2.25;;
82806;SDS011;72563;44.816;20.484;2024-01-06T05:21:47;7.35;;;2.10;;
82806;SDS011;72563;44.816;20.484;2024-01-06T05:24:13;7.65;;;2.60;;
82806;SDS011;72563;44.816;20.484;2024-01-06T05:26:38;6.05;;;2.35;;
82806;SDS011;72563;44.816;20.484;2024-01-06T05:29:04;6.22;;;2.22;;
82806;SDS011;72563;44.816;20.484;2024-01-06T05:31:30;6.88;;;2.33;;
82806;SDS011;72563;44.816;20.484;2024-01-06T05:33:55;6.22;;;2.00;;
82806;SDS011;72563;44.816;20.484;2024-01-06T05:36:21;6.10;;;2.13;;
82806;SDS011;72563;44.816;20.484;2024-01-06T05:38:46;8.48;;;2.65;;
82806;SDS011;72563;44.816;20.484;2024-01-06T05:41:12;6.40;;;2.10;;
82806;SDS011;72563;44.816;20.484;2024-01-06T05:43:37;6.15;;;2.25;;
82806;SDS011;72563;44.816;20.484;2024-01-06T05:46:03;5.82;;;2.22;;
82806;SDS011;72563;44.816;20.484;2024-01-06T05:48:29;6.93;;;2.58;;
82806;SDS011;72563;44.816;20.484;2024-01-06T05:50:55;7.43;;;2.50;;
82806;SDS011;72563;44.816;20.484;2024-01-06T05:53:20;6.00;;;2.47;;
82806;SDS011;72563;44.816;20.484;2024-01-06T05:55:46;5.28;;;2.17;;
82806;SDS011;72563;44.816;20.484;2024-01-06T05:58:12;7.65;;;2.85;;
82806;SDS011;72563;44.816;20.484;2024-01-06T06:00:38;7.68;;;2.75;;
82806;SDS011;72563;44.816;20.484;2024-01-06T06:03:04;6.38;;;2.70;;
82806;SDS011;72563;44.816;20.484;2024-01-06T06:05:29;5.47;;;2.50;;
82806;SDS011;72563;44.816;20.484;2024-01-06T06:07:55;5.05;;;2.17;;
82806;SDS011;72563;44.816;20.484;2024-01-06T06:10:20;7.88;;;2.40;;
82806;SDS011;72563;44.816;20.484;2024-01-06T06:12:46;6.60;;;2.40;;
82806;SDS011;72563;44.816;20.484;2024-01-06T06:15:12;6.40;;;2.47;;
82806;SDS011;72563;44.816;20.484;2024-01-06T06:17:38;7.10;;;2.80;;
82806;SDS011;72563;44.816;20.484;2024-01-06T06:20:04;6.88;;;2.30;;
82806;SDS011;72563;44.816;20.484;2024-01-06T06:22:31;8.20;;;2.72;;
82806;SDS011;72563;44.816;20.484;2024-01-06T06:24:58;5.20;;;2.20;;
82806;SDS011;72563;44.816;20.484;2024-01-06T06:27:24;9.18;;;2.75;;
82806;SDS011;72563;44.816;20.484;2024-01-06T06:29:50;7.25;;;3.00;;
82806;SDS011;72563;44.816;20.484;2024-01-06T06:32:16;7.57;;;2.80;;
82806;SDS011;72563;44.816;20.484;2024-01-06T06:34:42;8.85;;;3.00;;
82806;SDS011;72563;44.816;20.484;2024-01-06T06:37:08;8.30;;;3.05;;
82806;SDS011;72563;44.816;20.484;2024-01-06T06:39:33;7.85;;;2.80;;
82806;SDS011;72563;44.816;20.484;2024-01-06T06:42:00;7.05;;;2.78;;
82806;SDS011;72563;44.816;20.484;2024-01-06T06:44:26;7.65;;;3.20;;
82806;SDS011;72563;44.816;20.484;2024-01-06T06:46:52;10.32;;;3.60;;
82806;SDS011;72563;44.816;20.484;2024-01-06T06:49:18;6.82;;;2.90;;
82806;SDS011;72563;44.816;20.484;2024-01-06T06:51:43;7.80;;;3.50;;
82806;SDS011;72563;44.816;20.484;2024-01-06T06:54:12;9.73;;;3.10;;
82806;SDS011;72563;44.816;20.484;2024-01-06T06:56:39;7.75;;;3.47;;
82806;SDS011;72563;44.816;20.484;2024-01-06T06:59:05;9.32;;;3.58;;
82806;SDS011;72563;44.816;20.484;2024-01-06T07:01:30;8.55;;;3.72;;
82806;SDS011;72563;44.816;20.484;2024-01-06T07:03:56;8.98;;;3.55;;
82806;SDS011;72563;44.816;20.484;2024-01-06T07:06:22;9.40;;;3.72;;
82806;SDS011;72563;44.816;20.484;2024-01-06T07:08:47;8.18;;;3.70;;
82806;SDS011;72563;44.816;20.484;2024-01-06T07:11:14;9.57;;;3.75;;
82806;SDS011;72563;44.816;20.484;2024-01-06T07:13:43;10.30;;;3.75;;
82806;SDS011;72563;44.816;20.484;2024-01-06T07:16:08;11.02;;;4.35;;
82806;SDS011;72563;44.816;20.484;2024-01-06T07:18:34;7.47;;;3.47;;
82806;SDS011;72563;44.816;20.484;2024-01-06T07:21:00;8.65;;;4.00;;
82806;SDS011;72563;44.816;20.484;2024-01-06T07:23:25;8.85;;;3.90;;
82806;SDS011;72563;44.816;20.484;2024-01-06T07:25:51;7.88;;;3.85;;
82806;SDS011;72563;44.816;20.484;2024-01-06T07:28:16;7.75;;;3.17;;
82806;SDS011;72563;44.816;20.484;2024-01-06T07:30:42;9.15;;;3.58;;
82806;SDS011;72563;44.816;20.484;2024-01-06T07:33:07;9.35;;;3.75;;
82806;SDS011;72563;44.816;20.484;2024-01-06T07:35:33;8.77;;;3.40;;
82806;SDS011;72563;44.816;20.484;2024-01-06T07:37:59;8.02;;;3.17;;
82806;SDS011;72563;44.816;20.484;2024-01-06T07:40:24;9.63;;;3.53;;
82806;SDS011;72563;44.816;20.484;2024-01-06T07:42:50;9.75;;;3.47;;
82806;SDS011;72563;44.816;20.484;2024-01-06T07:45:16;9.02;;;3.15;;
82806;SDS011;72563;44.816;20.484;2024-01-06T07:47:42;8.77;;;3.20;;
82806;SDS011;72563;44.816;20.484;2024-01-06T07:50:08;8.95;;;3.53;;
82806;SDS011;72563;44.816;20.484;2024-01-06T07:52:34;9.70;;;3.67;;
82806;SDS011;72563;44.816;20.484;2024-01-06T07:54:59;8.95;;;3.50;;
82806;SDS011;72563;44.816;20.484;2024-01-06T07:57:25;10.38;;;3.15;;
82806;SDS011;72563;44.816;20.484;2024-01-06T07:59:50;7.57;;;3.30;;
82806;SDS011;72563;44.816;20.484;2024-01-06T08:02:16;9.27;;;3.38;;
82806;SDS011;72563;44.816;20.484;2024-01-06T08:04:42;7.47;;;2.78;;
82806;SDS011;72563;44.816;20.484;2024-01-06T08:07:07;7.18;;;3.47;;
82806;SDS011;72563;44.816;20.484;2024-01-06T08:09:33;8.18;;;3.28;;
82806;SDS011;72563;44.816;20.484;2024-01-06T08:11:58;10.60;;;3.65;;
82806;SDS011;72563;44.816;20.484;2024-01-06T08:14:24;8.77;;;3.75;;
82806;SDS011;72563;44.816;20.484;2024-01-06T08:16:49;7.53;;;3.00;;
82806;SDS011;72563;44.816;20.484;2024-01-06T08:19:15;8.65;;;3.10;;
82806;SDS011;72563;44.816;20.484;2024-01-06T08:21:41;8.43;;;3.60;;
82806;SDS011;72563;44.816;20.484;2024-01-06T08:24:06;7.45;;;3.40;;
82806;SDS011;72563;44.816;20.484;2024-01-06T08:26:32;9.25;;;3.45;;
82806;SDS011;72563;44.816;20.484;2024-01-06T08:28:58;7.35;;;3.10;;
82806;SDS011;72563;44.816;20.484;2024-01-06T08:31:23;8.25;;;3.00;;
82806;SDS011;72563;44.816;20.484;2024-01-06T08:33:49;7.32;;;3.22;;
82806;SDS011;72563;44.816;20.484;2024-01-06T08:36:14;8.95;;;2.85;;
82806;SDS011;72563;44.816;20.484;2024-01-06T08:38:40;10.32;;;3.63;;
82806;SDS011;72563;44.816;20.484;2024-01-06T08:41:05;6.97;;;3.72;;
82806;SDS011;72563;44.816;20.484;2024-01-06T08:43:31;8.50;;;3.17;;
82806;SDS011;72563;44.816;20.484;2024-01-06T08:45:57;7.53;;;3.45;;
82806;SDS011;72563;44.816;20.484;2024-01-06T08:48:22;7.97;;;3.00;;
82806;SDS011;72563;44.816;20.484;2024-01-06T08:50:48;7.20;;;2.63;;
82806;SDS011;72563;44.816;20.484;2024-01-06T08:53:13;6.40;;;2.40;;
82806;SDS011;72563;44.816;20.484;2024-01-06T08:55:39;9.05;;;3.05;;
82806;SDS011;72563;44.816;20.484;2024-01-06T08:58:04;7.88;;;3.22;;
82806;SDS011;72563;44.816;20.484;2024-01-06T09:00:30;9.05;;;2.83;;
82806;SDS011;72563;44.816;20.484;2024-01-06T09:02:56;8.80;;;3.53;;
82806;SDS011;72563;44.816;20.484;2024-01-06T09:05:21;7.85;;;3.40;;
82806;SDS011;72563;44.816;20.484;2024-01-06T09:07:47;10.80;;;4.53;;
82806;SDS011;72563;44.816;20.484;2024-01-06T09:10:16;10.32;;;3.75;;
82806;SDS011;72563;44.816;20.484;2024-01-06T09:12:42;7.43;;;3.42;;
82806;SDS011;72563;44.816;20.484;2024-01-06T09:15:08;8.55;;;3.55;;
82806;SDS011;72563;44.816;20.484;2024-01-06T09:17:34;10.23;;;3.80;;
82806;SDS011;72563;44.816;20.484;2024-01-06T09:20:00;10.65;;;4.50;;
82806;SDS011;72563;44.816;20.484;2024-01-06T09:22:26;10.43;;;4.32;;
82806;SDS011;72563;44.816;20.484;2024-01-06T09:24:52;7.80;;;4.00;;
82806;SDS011;72563;44.816;20.484;2024-01-06T09:27:18;10.07;;;4.18;;
82806;SDS011;72563;44.816;20.484;2024-01-06T09:29:44;9.05;;;3.40;;
82806;SDS011;72563;44.816;20.484;2024-01-06T09:32:10;9.10;;;3.53;;
82806;SDS011;72563;44.816;20.484;2024-01-06T09:34:36;7.72;;;3.55;;
82806;SDS011;72563;44.816;20.484;2024-01-06T09:37:02;7.65;;;3.45;;
82806;SDS011;72563;44.816;20.484;2024-01-06T09:39:28;7.63;;;3.78;;
82806;SDS011;72563;44.816;20.484;2024-01-06T09:41:56;8.80;;;3.47;;
82806;SDS011;72563;44.816;20.484;2024-01-06T09:44:21;8.95;;;3.70;;
82806;SDS011;72563;44.816;20.484;2024-01-06T09:46:47;9.65;;;3.55;;
82806;SDS011;72563;44.816;20.484;2024-01-06T09:49:13;10.52;;;4.28;;
82806;SDS011;72563;44.816;20.484;2024-01-06T09:51:40;10.45;;;4.55;;
82806;SDS011;72563;44.816;20.484;2024-01-06T09:54:08;9.07;;;3.85;;
82806;SDS011;72563;44.816;20.484;2024-01-06T09:56:34;8.45;;;3.72;;
82806;SDS011;72563;44.816;20.484;2024-01-06T09:59:00;8.52;;;3.28;;
82806;SDS011;72563;44.816;20.484;2024-01-06T10:01:27;9.45;;;3.92;;
82806;SDS011;72563;44.816;20.484;2024-01-06T10:03:52;12.45;;;4.28;;
82806;SDS011;72563;44.816;20.484;2024-01-06T10:06:18;9.93;;;4.40;;
82806;SDS011;72563;44.816;20.484;2024-01-06T10:08:48;8.90;;;3.95;;
82806;SDS011;72563;44.816;20.484;2024-01-06T10:11:15;9.27;;;4.32;;
82806;SDS011;72563;44.816;20.484;2024-01-06T10:13:41;9.52;;;4.65;;
82806;SDS011;72563;44.816;20.484;2024-01-06T10:16:06;8.40;;;3.70;;
82806;SDS011;72563;44.816;20.484;2024-01-06T10:18:32;9.05;;;4.10;;
82806;SDS011;72563;44.816;20.484;2024-01-06T10:21:03;11.07;;;4.45;;
82806;SDS011;72563;44.816;20.484;2024-01-06T10:23:31;9.27;;;3.92;;
82806;SDS011;72563;44.816;20.484;2024-01-06T10:25:57;8.05;;;3.55;;
82806;SDS011;72563;44.816;20.484;2024-01-06T10:28:22;9.52;;;4.38;;
82806;SDS011;72563;44.816;20.484;2024-01-06T10:30:49;7.30;;;3.65;;
82806;SDS011;72563;44.816;20.484;2024-01-06T10:33:18;7.85;;;3.72;;
82806;SDS011;72563;44.816;20.484;2024-01-06T10:35:45;8.05;;;3.47;;
82806;SDS011;72563;44.816;20.484;2024-01-06T10:38:11;8.60;;;4.05;;
82806;SDS011;72563;44.816;20.484;2024-01-06T10:40:36;8.98;;;3.85;;
82806;SDS011;72563;44.816;20.484;2024-01-06T10:43:02;10.05;;;4.13;;
82806;SDS011;72563;44.816;20.484;2024-01-06T10:45:28;11.70;;;4.60;;
82806;SDS011;72563;44.816;20.484;2024-01-06T10:47:57;11.18;;;4.22;;
82806;SDS011;72563;44.816;20.484;2024-01-06T10:50:24;9.45;;;4.72;;
82806;SDS011;72563;44.816;20.484;2024-01-06T10:52:52;11.30;;;4.78;;
82806;SDS011;72563;44.816;20.484;2024-01-06T10:55:20;12.07;;;4.97;;
82806;SDS011;72563;44.816;20.484;2024-01-06T10:57:47;10.55;;;5.03;;
82806;SDS011;72563;44.816;20.484;2024-01-06T11:00:14;13.80;;;5.25;;
82806;SDS011;72563;44.816;20.484;2024-01-06T11:02:40;10.23;;;5.43;;
82806;SDS011;72563;44.816;20.484;2024-01-06T11:05:07;10.32;;;4.88;;
82806;SDS011;72563;44.816;20.484;2024-01-06T11:07:35;10.82;;;4.97;;
82806;SDS011;72563;44.816;20.484;2024-01-06T11:12:37;9.90;;;4.68;;
82806;SDS011;72563;44.816;20.484;2024-01-06T11:15:03;9.82;;;4.32;;
82806;SDS011;72563;44.816;20.484;2024-01-06T11:20:18;10.27;;;4.97;;
82806;SDS011;72563;44.816;20.484;2024-01-06T11:22:47;10.23;;;4.40;;
82806;SDS011;72563;44.816;20.484;2024-01-06T11:25:14;9.70;;;4.88;;
82806;SDS011;72563;44.816;20.484;2024-01-06T11:27:42;12.13;;;5.93;;
82806;SDS011;72563;44.816;20.484;2024-01-06T11:30:19;11.95;;;5.30;;
82806;SDS011;72563;44.816;20.484;2024-01-06T11:32:48;9.95;;;5.32;;
82806;SDS011;72563;44.816;20.484;2024-01-06T11:35:17;10.85;;;5.85;;
82806;SDS011;72563;44.816;20.484;2024-01-06T11:42:47;14.27;;;6.32;;
82806;SDS011;72563;44.816;20.484;2024-01-06T11:45:13;10.73;;;5.68;;
82806;SDS011;72563;44.816;20.484;2024-01-06T11:47:40;10.27;;;5.57;;
82806;SDS011;72563;44.816;20.484;2024-01-06T11:50:12;13.32;;;6.03;;
82806;SDS011;72563;44.816;20.484;2024-01-06T11:52:38;10.80;;;5.65;;
82806;SDS011;72563;44.816;20.484;2024-01-06T11:55:04;12.02;;;5.45;;
82806;SDS011;72563;44.816;20.484;2024-01-06T11:57:33;10.85;;;5.32;;
82806;SDS011;72563;44.816;20.484;2024-01-06T11:59:59;10.77;;;5.18;;
82806;SDS011;72563;44.816;20.484;2024-01-06T12:02:24;10.55;;;4.72;;
82806;SDS011;72563;44.816;20.484;2024-01-06T12:04:53;11.25;;;5.13;;
82806;SDS011;72563;44.816;20.484;2024-01-06T12:07:20;11.52;;;4.45;;
82806;SDS011;72563;44.816;20.484;2024-01-06T12:09:47;9.45;;;4.28;;
82806;SDS011;72563;44.816;20.484;2024-01-06T12:12:25;9.70;;;5.00;;
82806;SDS011;72563;44.816;20.484;2024-01-06T12:14:51;10.88;;;4.90;;
82806;SDS011;72563;44.816;20.484;2024-01-06T12:17:16;11.95;;;5.22;;
82806;SDS011;72563;44.816;20.484;2024-01-06T12:19:42;10.18;;;5.20;;
82806;SDS011;72563;44.816;20.484;2024-01-06T12:22:09;9.55;;;4.85;;
82806;SDS011;72563;44.816;20.484;2024-01-06T12:24:38;9.90;;;5.25;;
82806;SDS011;72563;44.816;20.484;2024-01-06T12:27:03;9.70;;;4.65;;
82806;SDS011;72563;44.816;20.484;2024-01-06T12:29:31;8.55;;;4.43;;
82806;SDS011;72563;44.816;20.484;2024-01-06T12:31:59;11.38;;;5.15;;
82806;SDS011;72563;44.816;20.484;2024-01-06T12:34:25;12.13;;;4.57;;
82806;SDS011;72563;44.816;20.484;2024-01-06T12:36:54;8.95;;;4.30;;
82806;SDS011;72563;44.816;20.484;2024-01-06T12:39:20;8.88;;;3.80;;
82806;SDS011;72563;44.816;20.484;2024-01-06T12:41:46;9.93;;;4.28;;
82806;SDS011;72563;44.816;20.484;2024-01-06T12:44:11;9.70;;;5.03;;
82806;SDS011;72563;44.816;20.484;2024-01-06T12:46:37;8.50;;;4.40;;
82806;SDS011;72563;44.816;20.484;2024-01-06T12:49:03;11.00;;;5.22;;
82806;SDS011;72563;44.816;20.484;2024-01-06T12:51:29;11.13;;;4.55;;
82806;SDS011;72563;44.816;20.484;2024-01-06T12:53:54;9.30;;;4.15;;
82806;SDS011;72563;44.816;20.484;2024-01-06T12:56:20;14.88;;;4.60;;
82806;SDS011;72563;44.816;20.484;2024-01-06T12:58:45;10.75;;;4.80;;
82806;SDS011;72563;44.816;20.484;2024-01-06T13:01:11;9.90;;;4.28;;
82806;SDS011;72563;44.816;20.484;2024-01-06T13:03:37;8.93;;;4.00;;
82806;SDS011;72563;44.816;20.484;2024-01-06T13:06:02;10.40;;;4.60;;
82806;SDS011;72563;44.816;20.484;2024-01-06T13:08:28;10.35;;;5.03;;
82806;SDS011;72563;44.816;20.484;2024-01-06T13:10:55;10.57;;;4.72;;
82806;SDS011;72563;44.816;20.484;2024-01-06T13:13:21;11.13;;;4.60;;
82806;SDS011;72563;44.816;20.484;2024-01-06T13:15:46;9.30;;;4.80;;
82806;SDS011;72563;44.816;20.484;2024-01-06T13:18:12;9.02;;;4.07;;
82806;SDS011;72563;44.816;20.484;2024-01-06T13:20:38;11.23;;;4.88;;
82806;SDS011;72563;44.816;20.484;2024-01-06T13:25:32;8.82;;;4.07;;
82806;SDS011;72563;44.816;20.484;2024-01-06T13:27:58;12.02;;;4.57;;
82806;SDS011;72563;44.816;20.484;2024-01-06T13:30:24;9.15;;;4.22;;
82806;SDS011;72563;44.816;20.484;2024-01-06T13:32:50;8.98;;;4.32;;
82806;SDS011;72563;44.816;20.484;2024-01-06T13:35:19;9.55;;;4.10;;
82806;SDS011;72563;44.816;20.484;2024-01-06T13:37:45;10.70;;;4.82;;
82806;SDS011;72563;44.816;20.484;2024-01-06T13:40:13;10.15;;;4.47;;
82806;SDS011;72563;44.816;20.484;2024-01-06T13:42:39;10.07;;;4.95;;
82806;SDS011;72563;44.816;20.484;2024-01-06T13:45:05;9.10;;;4.88;;
82806;SDS011;72563;44.816;20.484;2024-01-06T13:47:32;9.75;;;5.30;;
82806;SDS011;72563;44.816;20.484;2024-01-06T13:49:58;8.50;;;4.25;;
82806;SDS011;72563;44.816;20.484;2024-01-06T13:52:23;9.85;;;4.53;;
82806;SDS011;72563;44.816;20.484;2024-01-06T13:54:49;10.10;;;5.13;;
82806;SDS011;72563;44.816;20.484;2024-01-06T13:57:15;9.93;;;4.82;;
82806;SDS011;72563;44.816;20.484;2024-01-06T13:59:40;9.45;;;4.32;;
82806;SDS011;72563;44.816;20.484;2024-01-06T14:02:08;10.50;;;5.13;;
82806;SDS011;72563;44.816;20.484;2024-01-06T14:04:34;10.48;;;4.65;;
82806;SDS011;72563;44.816;20.484;2024-01-06T14:07:00;10.75;;;5.68;;
82806;SDS011;72563;44.816;20.484;2024-01-06T14:09:27;10.73;;;5.53;;
82806;SDS011;72563;44.816;20.484;2024-01-06T14:11:53;9.38;;;5.10;;
82806;SDS011;72563;44.816;20.484;2024-01-06T14:14:19;10.35;;;4.88;;
82806;SDS011;72563;44.816;20.484;2024-01-06T14:16:45;9.82;;;5.13;;
82806;SDS011;72563;44.816;20.484;2024-01-06T14:19:12;10.13;;;4.85;;
82806;SDS011;72563;44.816;20.484;2024-01-06T14:21:39;11.48;;;5.00;;
82806;SDS011;72563;44.816;20.484;2024-01-06T14:24:05;13.23;;;5.32;;
82806;SDS011;72563;44.816;20.484;2024-01-06T14:26:33;11.23;;;4.80;;
82806;SDS011;72563;44.816;20.484;2024-01-06T14:28:59;11.95;;;5.03;;
82806;SDS011;72563;44.816;20.484;2024-01-06T14:31:25;12.45;;;5.10;;
82806;SDS011;72563;44.816;20.484;2024-01-06T14:33:53;10.52;;;5.00;;
82806;SDS011;72563;44.816;20.484;2024-01-06T14:36:20;10.38;;;5.45;;